Time;durP1;ratioP1;P1;durP2;ratioP2;P2;SDS_P1;SDS_P2;PMS_P1;PMS_P2;Temp;Humidity;BMP_temperature;BMP_pressure;BME280_temperature;BME280_humidity;BME280_pressure;Samples;Min_cycle;Max_cycle;Signal;HPM_P1;HPM_P2
2022/04/18 00:05:57;;;;;;;4.65;2.33;;;11.90;80.90;;;;;;20995948;28;20125;-43
2022/04/18 00:15:58;;;;;;;6.32;3.08;;;12.00;80.70;;;;;;21053297;28;20133;-43
2022/04/18 00:25:59;;;;;;;4.80;2.92;;;11.90;81.40;;;;;;21052353;28;20020;-42
2022/04/18 00:36:01;;;;;;;5.82;3.03;;;11.80;80.80;;;;;;21048569;28;20059;-43
2022/04/18 00:46:02;;;;;;;4.30;2.85;;;11.80;81.90;;;;;;21054403;28;20391;-43
2022/04/18 00:56:07;;;;;;;8.00;3.47;;;11.80;83.20;;;;;;21053953;28;20403;-43
2022/04/18 01:06:09;;;;;;;6.20;3.28;;;11.60;82.50;;;;;;21041497;28;20039;-43
2022/04/18 01:16:12;;;;;;;4.82;2.92;;;11.50;82.70;;;;;;21055223;28;20078;-43
2022/04/18 01:36:33;;;;;;;6.90;3.88;;;11.20;84.60;;;;;;21047777;28;20561;-43
2022/04/18 01:46:35;;;;;;;6.50;3.42;;;11.20;85.60;;;;;;21051894;28;20028;-43
2022/04/18 01:56:36;;;;;;;10.57;3.80;;;11.10;85.20;;;;;;21040173;28;20033;-43
2022/04/18 02:06:37;;;;;;;7.25;3.25;;;10.90;85.50;;;;;;21044580;28;20595;-43
2022/04/18 02:16:38;;;;;;;5.55;2.75;;;10.70;87.10;;;;;;21037147;28;20138;-45
2022/04/18 02:26:39;;;;;;;7.50;2.80;;;10.60;87.00;;;;;;21034379;28;20106;-45
2022/04/18 02:36:40;;;;;;;6.28;3.47;;;10.50;88.30;;;;;;21046643;28;20483;-45
2022/04/18 02:46:41;;;;;;;4.93;2.78;;;10.40;88.80;;;;;;21030107;28;20031;-45
2022/04/18 02:56:42;;;;;;;7.15;2.92;;;10.40;91.40;;;;;;21047304;28;20495;-45
2022/04/18 03:06:43;;;;;;;5.35;2.83;;;10.30;90.10;;;;;;21039481;28;20399;-45
2022/04/18 03:16:45;;;;;;;6.35;2.95;;;10.20;90.00;;;;;;21052943;28;20051;-45
2022/04/18 03:26:46;;;;;;;11.90;7.07;;;10.00;90.30;;;;;;21065089;28;20519;-45
2022/04/18 03:47:06;;;;;;;5.18;3.53;;;9.80;91.40;;;;;;21043863;28;20043;-45
2022/04/18 03:57:07;;;;;;;3.83;2.45;;;9.60;92.40;;;;;;21060670;28;20538;-45
2022/04/18 04:07:09;;;;;;;5.05;2.80;;;9.50;92.20;;;;;;21043341;28;20385;-45
2022/04/18 04:17:11;;;;;;;7.55;2.75;;;9.50;92.10;;;;;;21056505;28;20606;-45
2022/04/18 04:27:12;;;;;;;3.00;1.83;;;9.40;92.70;;;;;;21047990;28;20055;-45
2022/04/18 04:37:13;;;;;;;5.57;2.40;;;9.40;93.10;;;;;;21060027;28;20107;-45
2022/04/18 04:47:14;;;;;;;4.93;2.45;;;9.40;93.30;;;;;;21058182;28;20115;-46
2022/04/18 04:57:15;;;;;;;6.50;2.80;;;9.30;97.30;;;;;;21055872;28;20056;-45
2022/04/18 05:07:17;;;;;;;5.15;2.53;;;9.10;97.70;;;;;;21049758;28;20039;-45
2022/04/18 05:17:18;;;;;;;6.05;3.03;;;9.00;99.90;;;;;;21055012;28;20028;-45
2022/04/18 05:27:19;;;;;;;5.82;2.17;;;8.80;99.90;;;;;;21043072;28;20031;-45
2022/04/18 05:37:20;;;;;;;5.20;2.40;;;8.90;99.80;;;;;;21039114;28;20036;-45
2022/04/18 05:47:21;;;;;;;5.55;2.63;;;9.00;98.70;;;;;;21054974;28;20051;-45
2022/04/18 05:57:22;;;;;;;4.63;2.53;;;9.60;96.90;;;;;;21043976;28;20051;-45
2022/04/18 06:07:24;;;;;;;4.03;2.40;;;9.70;95.70;;;;;;21050337;28;20024;-45
2022/04/18 06:17:25;;;;;;;4.28;1.98;;;9.80;94.70;;;;;;21034218;28;20047;-45
2022/04/18 06:27:26;;;;;;;3.38;1.75;;;10.00;95.20;;;;;;21036285;28;20031;-45
2022/04/18 06:37:28;;;;;;;3.70;2.05;;;10.30;94.60;;;;;;21045176;28;20032;-45
2022/04/18 06:47:29;;;;;;;6.03;1.65;;;10.80;94.00;;;;;;21034665;28;20044;-45
2022/04/18 06:57:32;;;;;;;4.97;1.83;;;11.10;92.80;;;;;;21038611;28;20059;-45
2022/04/18 07:07:36;;;;;;;3.53;1.42;;;11.40;91.30;;;;;;21028421;28;22220;-45
2022/04/18 07:17:37;;;;;;;1.95;1.00;;;11.80;90.60;;;;;;21046480;28;20459;-45
2022/04/18 07:27:39;;;;;;;4.25;2.05;;;12.20;91.60;;;;;;21046248;28;20047;-43
2022/04/18 07:38:48;;;;;;;2.90;1.30;;;12.70;90.80;;;;;;21041842;28;20850;-44
2022/04/18 07:48:01;;;;;;;2.67;1.20;;;13.10;88.90;;;;;;21028917;28;20032;-43
2022/04/18 07:58:02;;;;;;;2.30;1.10;;;13.50;89.10;;;;;;21042900;28;20040;-43
2022/04/18 08:08:04;;;;;;;2.65;0.95;;;13.80;87.60;;;;;;21045806;28;20313;-43
2022/04/18 08:18:05;;;;;;;1.80;0.90;;;13.90;87.20;;;;;;21025150;28;20028;-43
2022/04/18 08:28:06;;;;;;;3.33;0.90;;;14.40;84.50;;;;;;21049065;28;20024;-43
2022/04/18 08:38:08;;;;;;;1.40;0.70;;;15.00;83.80;;;;;;21032028;28;20534;-43
2022/04/18 08:58:28;;;;;;;1.48;0.70;;;15.60;80.10;;;;;;21050834;28;20518;-43
2022/04/18 09:08:32;;;;;;;1.67;0.77;;;16.10;80.30;;;;;;21036131;28;20593;-45
2022/04/18 09:18:42;;;;;;;1.20;0.50;;;16.50;81.40;;;;;;21031777;28;20518;-43
2022/04/18 09:28:43;;;;;;;2.10;0.70;;;17.00;82.00;;;;;;21043865;28;20062;-43
2022/04/18 09:38:47;;;;;;;2.13;0.80;;;17.10;79.60;;;;;;21008305;28;20041;-43
2022/04/18 09:48:50;;;;;;;1.67;0.77;;;17.00;80.70;;;;;;21033589;28;20459;-43
2022/04/18 09:58:53;;;;;;;3.17;0.90;;;17.50;80.20;;;;;;21051233;28;20048;-44
2022/04/18 10:08:54;;;;;;;1.10;0.60;;;17.50;78.00;;;;;;21050392;28;20047;-44
2022/04/18 10:18:59;;;;;;;2.25;1.05;;;17.90;79.30;;;;;;21049749;28;20040;-43
2022/04/18 10:29:06;;;;;;;1.70;0.63;;;18.20;79.60;;;;;;21027113;28;20032;-43
2022/04/18 10:39:08;;;;;;;1.20;0.60;;;18.20;78.30;;;;;;21031669;28;20024;-43
2022/04/18 10:49:20;;;;;;;1.08;0.57;;;18.60;75.00;;;;;;21037471;28;20403;-44
2022/04/18 10:59:42;;;;;;;2.00;0.80;;;18.90;76.40;;;;;;21037515;28;20048;-44
2022/04/18 11:09:46;;;;;;;1.65;0.63;;;19.20;73.80;;;;;;21028003;28;20040;-44
2022/04/18 11:19:47;;;;;;;3.03;0.85;;;19.50;73.30;;;;;;21045464;28;20043;-44
2022/04/18 11:29:56;;;;;;;2.00;0.70;;;19.50;70.20;;;;;;21041342;28;20039;-44
2022/04/18 11:40:00;;;;;;;2.75;1.25;;;20.00;72.90;;;;;;21032647;28;20039;-44
2022/04/18 11:50:03;;;;;;;2.05;1.02;;;20.40;73.80;;;;;;21055222;28;20039;-44
2022/04/18 12:00:09;;;;;;;1.98;0.82;;;20.80;73.60;;;;;;21060162;28;20117;-44
2022/04/18 12:10:24;;;;;;;2.05;0.82;;;20.80;70.50;;;;;;21054735;28;20052;-44
2022/04/18 12:20:30;;;;;;;1.85;1.00;;;21.50;68.80;;;;;;21050822;28;20040;-44
2022/04/18 12:30:31;;;;;;;1.00;0.65;;;21.70;71.30;;;;;;21050305;28;20044;-44
2022/04/18 12:40:38;;;;;;;1.73;0.50;;;21.70;66.20;;;;;;21041640;28;20024;-44
2022/04/18 12:50:40;;;;;;;3.20;0.67;;;22.10;63.10;;;;;;21048461;28;20036;-44
2022/04/18 13:00:44;;;;;;;0.68;0.40;;;22.20;66.20;;;;;;21044943;28;20391;-44
2022/04/18 13:10:45;;;;;;;0.60;0.25;;;22.00;59.00;;;;;;21050068;28;20027;-44
2022/04/18 13:20:46;;;;;;;0.57;0.38;;;22.80;61.10;;;;;;21046853;28;20036;-44
2022/04/18 13:30:47;;;;;;;1.02;0.40;;;22.40;57.60;;;;;;21046242;28;20036;-44
2022/04/18 13:40:49;;;;;;;1.98;0.70;;;23.30;60.50;;;;;;21050022;28;20050;-44
2022/04/18 13:50:52;;;;;;;4.50;1.15;;;23.80;59.10;;;;;;21045758;28;20052;-44
2022/04/18 14:00:53;;;;;;;1.33;0.80;;;23.60;61.80;;;;;;21048721;28;20375;-44
2022/04/18 14:10:54;;;;;;;1.77;0.95;;;23.10;58.70;;;;;;21050781;28;20467;-44
2022/04/18 14:20:55;;;;;;;1.92;1.10;;;21.90;57.90;;;;;;21046915;28;20055;-44
2022/04/18 14:30:56;;;;;;;1.50;0.70;;;21.50;58.80;;;;;;21035155;28;20529;-44
2022/04/18 14:40:57;;;;;;;1.65;0.65;;;21.30;59.10;;;;;;21029081;28;20028;-44
2022/04/18 14:50:59;;;;;;;1.25;0.55;;;20.90;60.00;;;;;;21048210;28;20036;-44
2022/04/18 15:01:02;;;;;;;1.42;0.70;;;21.00;59.50;;;;;;21031864;28;20100;-44
2022/04/18 15:11:04;;;;;;;2.00;0.90;;;20.70;60.00;;;;;;21032968;28;20849;-44
2022/04/18 15:21:06;;;;;;;2.33;0.98;;;20.80;61.40;;;;;;21044359;28;20028;-44
2022/04/18 15:41:31;;;;;;;1.95;0.90;;;20.40;61.10;;;;;;21040643;28;20384;-44
2022/04/18 15:51:32;;;;;;;2.30;1.20;;;20.30;61.60;;;;;;21028706;28;20556;-44
2022/04/18 16:01:33;;;;;;;2.85;1.35;;;20.20;60.80;;;;;;21043387;28;20032;-44
2022/04/18 16:11:35;;;;;;;3.42;1.77;;;20.00;61.80;;;;;;21023138;28;20040;-44
2022/04/18 16:21:36;;;;;;;2.22;0.95;;;19.90;60.00;;;;;;21043492;28;20035;-44
2022/04/18 16:31:50;;;;;;;1.85;0.82;;;19.70;61.90;;;;;;21056844;28;20040;-44
2022/04/18 16:52:11;;;;;;;2.13;0.90;;;19.50;62.90;;;;;;21047582;28;20119;-44
2022/04/18 17:02:13;;;;;;;2.15;0.90;;;19.30;64.50;;;;;;21038990;28;20055;-44
2022/04/18 17:12:15;;;;;;;1.70;0.73;;;19.20;62.30;;;;;;21052019;28;20036;-44
2022/04/18 17:22:16;;;;;;;1.65;0.80;;;19.00;65.80;;;;;;21038752;28;20020;-44
2022/04/18 17:32:17;;;;;;;1.95;0.93;;;18.80;69.90;;;;;;21035747;28;20044;-44
2022/04/18 17:42:18;;;;;;;2.13;0.80;;;18.60;69.70;;;;;;21035367;28;20334;-44
2022/04/18 17:52:19;;;;;;;2.80;1.15;;;18.40;72.60;;;;;;21042788;28;20051;-44
2022/04/18 18:02:20;;;;;;;3.92;1.77;;;18.20;73.60;;;;;;21032656;28;20045;-44
2022/04/18 18:12:21;;;;;;;1.50;0.70;;;17.90;79.40;;;;;;21035338;28;20064;-45
2022/04/18 18:22:23;;;;;;;12.70;1.50;;;17.60;83.20;;;;;;21037791;28;20024;-45
2022/04/18 18:32:24;;;;;;;2.10;0.82;;;17.10;85.90;;;;;;21043922;28;20032;-45
2022/04/18 18:42:25;;;;;;;3.28;0.73;;;16.80;88.80;;;;;;21024962;28;20028;-44
2022/04/18 18:52:26;;;;;;;4.03;2.53;;;16.40;89.40;;;;;;21023240;28;20056;-44
2022/04/18 19:02:27;;;;;;;1.10;0.50;;;15.90;90.00;;;;;;21039069;28;20044;-44
2022/04/18 19:12:30;;;;;;;2.35;0.95;;;15.60;91.10;;;;;;21029177;28;20028;-44
2022/04/18 19:32:51;;;;;;;2.80;0.90;;;15.10;93.20;;;;;;21019793;28;20035;-44
2022/04/18 19:42:52;;;;;;;2.08;1.10;;;14.70;94.70;;;;;;21043739;28;20021;-44
2022/04/18 19:52:54;;;;;;;2.42;1.15;;;14.50;96.40;;;;;;21042099;28;20050;-44
2022/04/18 20:02:59;;;;;;;1.83;0.80;;;14.60;97.60;;;;;;21060307;28;20024;-45
2022/04/18 20:13:00;;;;;;;2.30;1.08;;;14.50;98.80;;;;;;21048523;28;20133;-44
2022/04/18 20:23:01;;;;;;;2.20;1.25;;;14.30;99.60;;;;;;21028321;28;20510;-44
2022/04/18 20:33:04;;;;;;;3.45;1.98;;;14.10;99.90;;;;;;21037999;28;20032;-44
2022/04/18 20:43:05;;;;;;;2.63;1.23;;;13.90;99.90;;;;;;21042128;28;20040;-44
2022/04/18 21:03:26;;;;;;;3.17;1.35;;;13.40;99.90;;;;;;21056980;28;20391;-44
2022/04/18 21:13:27;;;;;;;3.63;1.50;;;13.20;99.90;;;;;;21056553;28;20059;-44
2022/04/18 21:23:28;;;;;;;3.33;1.55;;;13.00;99.90;;;;;;21055707;28;20027;-44
2022/04/18 21:33:29;;;;;;;2.92;1.67;;;12.90;99.90;;;;;;21049403;28;20031;-44
2022/04/18 21:43:31;;;;;;;2.67;1.17;;;12.50;99.90;;;;;;21053509;28;20032;-44
2022/04/18 21:53:32;;;;;;;3.30;1.60;;;12.30;99.90;;;;;;21048700;28;20036;-44
2022/04/18 22:03:33;;;;;;;3.95;1.40;;;12.10;99.90;;;;;;21051475;28;20024;-44
2022/04/18 22:13:35;;;;;;;2.72;1.10;;;11.90;99.90;;;;;;21049269;28;20035;-44
2022/04/18 22:34:00;;;;;;;3.08;1.27;;;11.90;99.90;;;;;;21008848;28;20051;-44
2022/04/18 22:44:02;;;;;;;3.33;1.60;;;11.70;99.90;;;;;;21039024;28;20031;-44
2022/04/18 22:54:03;;;;;;;5.53;2.72;;;11.50;99.90;;;;;;21048326;28;20040;-44
2022/04/18 23:04:04;;;;;;;3.80;1.88;;;11.40;99.90;;;;;;21043966;28;20514;-44
2022/04/18 23:14:08;;;;;;;6.20;2.40;;;11.30;99.90;;;;;;21045985;28;20036;-44
2022/04/18 23:24:09;;;;;;;5.85;2.17;;;11.10;99.90;;;;;;21040833;28;20043;-44
2022/04/18 23:34:10;;;;;;;5.45;2.55;;;11.20;99.90;;;;;;21055259;28;20051;-44
2022/04/18 23:44:11;;;;;;;5.85;2.15;;;11.10;99.90;;;;;;21057687;28;20047;-44
2022/04/18 23:54:13;;;;;;;5.68;2.97;;;11.20;99.90;;;;;;21058971;28;20177;-44
